createdAt,value
2019-03-09T00:03:04.314Z,8.4
2019-03-09T00:08:03.880Z,8.3
2019-03-09T00:12:27.744Z,8.3
2019-03-09T00:17:28.443Z,8.4
2019-03-09T00:22:28.044Z,8.4
2019-03-09T00:27:29.984Z,8.4
2019-03-09T00:32:28.092Z,8.3
2019-03-09T00:37:27.719Z,8.4
2019-03-09T00:42:28.324Z,8.4
2019-03-09T00:47:28.493Z,8.4
2019-03-09T00:52:27.710Z,8.4
2019-03-09T00:57:28.244Z,8.5
2019-03-09T01:02:28.877Z,8.5
2019-03-09T01:07:28.254Z,8.5
2019-03-09T01:12:28.268Z,8.5
2019-03-09T01:17:27.716Z,8.6
2019-03-09T01:22:28.128Z,8.6
2019-03-09T01:27:28.273Z,8.6
2019-03-09T01:32:27.505Z,8.5
2019-03-09T01:37:28.272Z,8.5
2019-03-09T01:42:28.438Z,8.4
2019-03-09T01:47:27.736Z,8.3
2019-03-09T01:52:27.532Z,8.3
2019-03-09T01:57:27.754Z,8.3
2019-03-09T02:02:28.022Z,8.4
2019-03-09T02:07:28.103Z,8.4
2019-03-09T02:12:27.727Z,8.3
2019-03-09T02:17:29.674Z,8.4
2019-03-09T02:22:27.852Z,8.4
2019-03-09T02:27:27.827Z,8.5
2019-03-09T02:32:27.433Z,8.5
2019-03-09T02:37:27.938Z,8.4
2019-03-09T02:42:27.635Z,8.4
2019-03-09T02:47:27.696Z,8.4
2019-03-09T02:52:27.700Z,8.5
2019-03-09T02:57:27.956Z,8.4
2019-03-09T03:02:28.768Z,8.4
2019-03-09T03:07:28.467Z,8.4
2019-03-09T03:12:27.446Z,8.5
2019-03-09T03:17:27.569Z,8.4
2019-03-09T03:22:27.980Z,8.5
2019-03-09T03:27:28.459Z,8.5
2019-03-09T03:32:27.805Z,8.6
2019-03-09T03:37:27.408Z,8.7
2019-03-09T03:42:28.159Z,8.6
2019-03-09T03:47:27.822Z,8.6
2019-03-09T03:52:27.606Z,8.7
2019-03-09T03:57:28.241Z,8.5
2019-03-09T04:02:27.929Z,8.2
2019-03-09T04:07:28.786Z,8.3
2019-03-09T04:12:27.681Z,8.3
2019-03-09T04:17:28.939Z,8.3
2019-03-09T04:22:27.785Z,8.3
2019-03-09T04:27:27.789Z,8.3
2019-03-09T04:32:27.221Z,8.2
2019-03-09T04:37:27.702Z,8.0
2019-03-09T04:42:28.438Z,7.9
2019-03-09T04:47:27.755Z,7.7
2019-03-09T04:52:28.230Z,7.6
2019-03-09T04:57:27.944Z,7.4
2019-03-09T05:02:28.245Z,7.1
2019-03-09T05:07:28.439Z,7.0
2019-03-09T05:12:28.646Z,7.0
2019-03-09T05:17:29.025Z,6.9
2019-03-09T05:22:27.821Z,6.9
2019-03-09T05:27:28.426Z,6.8
2019-03-09T05:32:28.867Z,6.8
2019-03-09T05:37:28.503Z,6.8
2019-03-09T05:42:28.578Z,6.8
2019-03-09T05:47:28.320Z,6.8
2019-03-09T05:52:28.617Z,6.8
2019-03-09T05:57:30.467Z,6.8
2019-03-09T06:02:28.784Z,6.8
2019-03-09T06:07:28.261Z,6.7
2019-03-09T06:12:28.828Z,6.7
2019-03-09T06:17:29.090Z,6.8
2019-03-09T06:22:28.299Z,6.8
2019-03-09T06:27:28.736Z,6.9
2019-03-09T06:32:28.538Z,6.9
2019-03-09T06:37:28.308Z,7.0
2019-03-09T06:42:28.791Z,7.0
2019-03-09T06:47:28.254Z,7.3
2019-03-09T06:52:28.580Z,7.2
2019-03-09T06:57:28.857Z,7.3
2019-03-09T07:02:29.359Z,7.5
2019-03-09T07:07:28.699Z,7.7
2019-03-09T07:12:27.920Z,7.7
2019-03-09T07:17:28.632Z,7.9
2019-03-09T07:22:28.644Z,8.0
2019-03-09T07:27:28.588Z,8.0
2019-03-09T07:32:28.080Z,8.1
2019-03-09T07:37:29.234Z,8.2
2019-03-09T07:42:28.643Z,8.4
2019-03-09T07:47:29.735Z,8.6
2019-03-09T07:52:28.344Z,8.8
2019-03-09T07:57:27.724Z,9.1
2019-03-09T08:02:29.621Z,9.2
2019-03-09T08:07:29.069Z,9.6
2019-03-09T08:12:29.765Z,9.7
2019-03-09T08:17:28.635Z,9.7
2019-03-09T08:22:28.673Z,10.0
2019-03-09T08:27:28.661Z,10.3
2019-03-09T08:32:28.317Z,10.5
2019-03-09T08:37:28.718Z,10.6
2019-03-09T08:42:28.593Z,10.8
2019-03-09T08:47:29.049Z,11.1
2019-03-09T08:52:28.945Z,11.2
2019-03-09T08:57:28.946Z,11.2
2019-03-09T09:02:28.610Z,11.3
2019-03-09T09:07:28.892Z,11.4
2019-03-09T09:12:27.873Z,11.4
2019-03-09T09:17:28.528Z,11.4
2019-03-09T09:22:28.798Z,11.4
2019-03-09T09:27:28.996Z,11.4
2019-03-09T09:32:28.913Z,11.6
2019-03-09T09:37:28.618Z,11.8
2019-03-09T09:42:28.810Z,11.7
2019-03-09T09:47:28.648Z,11.7
2019-03-09T09:52:28.434Z,11.6
2019-03-09T09:57:28.666Z,11.6
2019-03-09T10:02:29.275Z,11.6
2019-03-09T10:07:28.434Z,11.7
2019-03-09T10:12:28.994Z,11.6
2019-03-09T10:17:28.873Z,11.5
2019-03-09T10:22:29.333Z,11.6
2019-03-09T10:27:28.113Z,11.7
2019-03-09T10:32:29.099Z,11.8
2019-03-09T10:37:28.364Z,11.9
2019-03-09T10:42:28.634Z,11.8
2019-03-09T10:47:29.134Z,11.9
2019-03-09T10:52:28.261Z,11.9
2019-03-09T10:57:28.084Z,11.9
2019-03-09T11:02:27.875Z,11.9
2019-03-09T11:07:28.724Z,11.9
2019-03-09T11:12:28.327Z,11.9
2019-03-09T11:17:28.562Z,11.9
2019-03-09T11:22:28.666Z,11.8
2019-03-09T11:27:28.059Z,11.9
2019-03-09T11:32:28.977Z,11.9
2019-03-09T11:37:28.269Z,11.8
2019-03-09T11:42:28.458Z,11.7
2019-03-09T11:47:29.028Z,11.8
2019-03-09T11:52:29.264Z,11.7
2019-03-09T11:57:29.047Z,11.7
2019-03-09T12:02:38.238Z,11.7
2019-03-09T12:07:28.270Z,11.7
2019-03-09T12:12:28.029Z,11.6
2019-03-09T12:17:28.502Z,11.6
2019-03-09T12:22:28.130Z,11.5
2019-03-09T12:27:28.842Z,11.4
2019-03-09T12:32:29.549Z,11.4
2019-03-09T12:37:28.152Z,11.6
2019-03-09T12:42:28.135Z,11.6
2019-03-09T12:47:28.938Z,11.6
2019-03-09T12:52:28.586Z,11.6
2019-03-09T12:57:28.731Z,11.8
2019-03-09T13:02:28.235Z,11.9
2019-03-09T13:07:29.251Z,12.3
2019-03-09T13:12:28.955Z,12.9
2019-03-09T13:17:28.880Z,13.4
2019-03-09T13:22:29.213Z,13.3
2019-03-09T13:27:28.854Z,13.3
2019-03-09T13:32:28.889Z,13.1
2019-03-09T13:37:28.811Z,13.0
2019-03-09T13:42:27.948Z,13.3
2019-03-09T13:47:29.152Z,12.8
2019-03-09T13:52:27.866Z,12.8
2019-03-09T13:57:28.956Z,12.3
2019-03-09T14:02:28.955Z,12.0
2019-03-09T14:07:28.883Z,11.7
2019-03-09T14:12:28.199Z,11.5
2019-03-09T14:17:29.169Z,11.3
2019-03-09T14:22:28.173Z,11.0
2019-03-09T14:27:28.311Z,10.7
2019-03-09T14:32:28.839Z,10.3
2019-03-09T14:37:28.391Z,10.2
2019-03-09T14:42:28.270Z,10.3
2019-03-09T14:47:29.078Z,10.7
2019-03-09T14:52:28.098Z,11.0
2019-03-09T14:57:27.939Z,11.0
2019-03-09T15:02:28.200Z,11.1
2019-03-09T15:07:29.645Z,11.1
2019-03-09T15:12:28.574Z,11.6
2019-03-09T15:17:29.605Z,11.7
2019-03-09T15:22:28.755Z,11.0
2019-03-09T15:27:29.344Z,10.6
2019-03-09T15:32:29.127Z,10.5
2019-03-09T15:37:28.377Z,10.5
2019-03-09T15:42:28.384Z,10.5
2019-03-09T15:47:28.996Z,10.5
2019-03-09T15:52:27.670Z,10.5
2019-03-09T15:57:28.476Z,10.7
2019-03-09T16:02:28.904Z,10.7
2019-03-09T16:07:28.492Z,10.9
2019-03-09T16:12:28.952Z,10.9
2019-03-09T16:17:28.506Z,11.1
2019-03-09T16:22:28.802Z,11.2
2019-03-09T16:27:28.473Z,11.1
2019-03-09T16:32:28.333Z,11.1
2019-03-09T16:37:28.399Z,11.1
2019-03-09T16:42:28.606Z,11.1
2019-03-09T16:47:28.349Z,11.1
2019-03-09T16:52:28.048Z,11.0
2019-03-09T16:57:29.266Z,10.9
2019-03-09T17:02:28.349Z,10.9
2019-03-09T17:07:28.849Z,10.7
2019-03-09T17:12:28.361Z,10.6
2019-03-09T17:17:28.838Z,10.5
2019-03-09T17:22:32.811Z,10.5
2019-03-09T17:27:29.235Z,10.5
2019-03-09T17:32:29.182Z,10.4
2019-03-09T17:37:28.477Z,10.4
2019-03-09T17:42:27.783Z,10.4
2019-03-09T17:47:28.320Z,10.4
2019-03-09T17:52:29.678Z,10.4
2019-03-09T17:57:27.645Z,10.4
2019-03-09T18:02:28.228Z,10.4
2019-03-09T18:07:28.900Z,10.4
2019-03-09T18:12:27.919Z,10.4
2019-03-09T18:17:28.125Z,10.4
2019-03-09T18:22:28.560Z,10.4
2019-03-09T18:27:28.571Z,10.4
2019-03-09T18:32:28.178Z,10.4
2019-03-09T18:37:28.806Z,10.4
2019-03-09T18:42:27.802Z,10.4
2019-03-09T18:47:28.638Z,10.5
2019-03-09T18:52:28.197Z,10.6
2019-03-09T18:57:27.693Z,10.5
2019-03-09T19:02:28.465Z,10.6
2019-03-09T19:07:28.206Z,10.5
2019-03-09T19:12:28.228Z,10.5
2019-03-09T19:17:28.253Z,10.5
2019-03-09T19:22:28.347Z,10.5
2019-03-09T19:27:28.680Z,10.5
2019-03-09T19:32:27.779Z,10.5
2019-03-09T19:37:28.041Z,10.5
2019-03-09T19:42:27.549Z,10.5
2019-03-09T19:47:28.072Z,10.5
2019-03-09T19:52:27.886Z,10.5
2019-03-09T19:57:27.555Z,10.4
2019-03-09T20:02:28.081Z,10.4
2019-03-09T20:07:28.515Z,10.4
2019-03-09T20:12:27.723Z,10.4
2019-03-09T20:17:28.349Z,10.4
2019-03-09T20:22:29.043Z,10.3
2019-03-09T20:27:28.407Z,10.4
2019-03-09T20:32:27.487Z,10.4
2019-03-09T20:37:27.755Z,10.4
2019-03-09T20:42:27.827Z,10.4
2019-03-09T20:47:28.179Z,10.4
2019-03-09T20:52:29.462Z,10.4
2019-03-09T20:57:28.023Z,10.4
2019-03-09T21:02:27.353Z,10.4
2019-03-09T21:07:28.222Z,10.4
2019-03-09T21:12:28.161Z,10.4
2019-03-09T21:17:28.373Z,10.4
2019-03-09T21:22:28.152Z,10.4
2019-03-09T21:27:28.047Z,10.4
2019-03-09T21:32:27.942Z,10.4
2019-03-09T21:37:30.138Z,10.4
2019-03-09T21:42:27.894Z,10.5
2019-03-09T21:47:29.393Z,10.5
2019-03-09T21:52:28.476Z,10.5
2019-03-09T21:57:28.539Z,10.5
2019-03-09T22:02:27.718Z,10.5
2019-03-09T22:07:28.289Z,10.6
2019-03-09T22:12:28.687Z,10.5
2019-03-09T22:17:28.691Z,10.6
2019-03-09T22:22:27.368Z,10.6
2019-03-09T22:27:28.130Z,10.6
2019-03-09T22:32:27.932Z,10.5
2019-03-09T22:37:28.374Z,10.6
2019-03-09T22:42:28.350Z,10.5
2019-03-09T22:47:28.399Z,10.5
2019-03-09T22:52:28.475Z,10.6
2019-03-09T22:57:29.279Z,10.5
2019-03-09T23:02:27.868Z,10.6
2019-03-09T23:07:28.364Z,10.5
2019-03-09T23:12:28.435Z,10.4
2019-03-09T23:22:41.778Z,10.2
2019-03-09T23:27:40.859Z,10.2
2019-03-09T23:32:41.199Z,10.2
2019-03-09T23:37:40.786Z,10.2
2019-03-09T23:42:40.088Z,10.2
2019-03-09T23:47:40.808Z,10.2
2019-03-09T23:52:40.308Z,10.1
2019-03-09T23:57:40.095Z,10.1
